Tiempo atmosférico en la estación meteorológica de Almansa, Albacete (715 m.)



Fecha
DESCASC
Temp. máxima en grados centígrados (hora)
DESCASC
Temp. mínima en grados centígrados (hora)
DESCASC
Temp. media en grados centígrados
DESCASC
Racha de viento máxima en m/sg (hora)
DESCASC
Velocidad máxima media en intervalos de 10 minutos(hora)
DESCASC
Precipitaciones diarias en mm
DESCASC
Precipitaciones de 00:00 a 06:00 en mm
DESCASC
Precipitaciones de 06:00 a 12:00 en mm
DESCASC
Precipitaciones de 12:00 a 18:00 en mm
DESCASC
Precipitaciones de 18:00 a 24:00 en mm
DESCASC
06-12-2018 20.4 (14:50) 5.4 (08:10) 12.9 6.39 (02:50) 3.33 (02:50) 0 0 0 0 0
05-12-2018 24.7 (15:40) 2.4 (07:50) 13.6 5.83 (15:10) 2.5 (15:00) 0 0 0 0 0
04-12-2018 22.9 (15:40) 2.2 (07:00) 12.5 3.06 (16:00) 1.67 (18:10) 0 0 0 0 0
03-12-2018 19.6 (15:30) 8 (00:00) 13.8 12.5 (05:50) 5 (05:40) 0 0 0 0 0
02-12-2018 17.2 (15:50) 6.4 (00:00) 11.8 11.67 (00:40) 5.56 (00:40) 0 0 0 0 0
01-12-2018 13.6 (15:30) 0.9 (00:00) 7.3 10.28 (16:40) 6.11 (16:40) 0 0 0 0 0
30-11-2018 12.1 (15:00) 4 (00:00) 8.1 10.83 (13:40) 5.56 (14:00) 0 0 0 0 0
29-11-2018 19.5 (14:40) -2.7 (-00:0) 8.4 5.56 (14:10) 2.5 (23:20) 0 0 0 0 0
28-11-2018 16.5 (14:40) 3 (00:00) 9.8 7.78 (13:20) 3.33 (18:50) 0 0 0 0 0
27-11-2018 14.8 (14:40) 4.4 (00:00) 9.6 10.28 (01:00) 5 (01:00) 0 0 0 0 0
26-11-2018 11.7 (15:00) 6.2 (08:40) 8.9 17.78 (05:40) 8.61 (06:20) 1.4 1.4 0 0 0
25-11-2018 15.4 (14:50) 2.6 (00:00) 9 15 (13:30) 7.5 (13:30) 0.2 0 0.2 0 0
24-11-2018 12.1 (13:50) 0.2 (00:00) 6.2 6.94 (16:40) 3.33 (16:50) 0 0 0 0 0
23-11-2018 11.8 (12:30) 3.9 (00:00) 7.9 8.61 (12:40) 3.89 (12:40) 5 0 5 0 0
22-11-2018 12.8 (14:30) 5.5 (00:00) 9.2 3.33 (00:30) 1.39 (00:30) 0 0 0 0 0
21-11-2018 13.8 (15:20) 4.3 (00:00) 9.1 6.67 (15:10) 2.78 (15:20) 0 0 0 0 0
20-11-2018 12.4 (14:20) 7.1 (00:00) 9.7 10.83 (21:30) 4.72 (19:10) 3.8 0 0 3.8 0
19-11-2018 9.4 (00:50) 8.6 (00:00) 9 6.39 (14:30) 2.78 (14:30) 2.8 0.8 1.6 0.2 0.2
18-11-2018 11.7 (13:20) 8 (00:00) 9.8 6.94 (22:00) 2.22 (22:00) 0.2 0 0 0.2 0
17-11-2018 13.3 (14:20) 10 (00:00) 11.7 5.28 (11:50) 1.67 (16:40) 3.4 3.2 0.2 0 0
16-11-2018 13.5 (14:20) 11.1 (00:00) 12.3 6.11 (16:00) 2.5 (12:50) 0 0 0 0 0
15-11-2018 14 (14:30) 10.7 (00:00) 12.3 5.83 (23:20) 2.22 (23:20) 8.6 0 8 0.6 0
14-11-2018 15.5 (14:40) 11.1 (00:00) 13.3 7.22 (17:00) 3.06 (16:10) 0 0 0 0 0
13-11-2018 14.9 (14:10) 8.6 (00:00) 11.8 7.78 (18:10) 3.89 (14:30) 0 0 0 0 0
12-11-2018 17.2 (15:00) 2.7 (00:00) 10 5.56 (16:00) 2.22 (15:20) 0 0 0 0 0
11-11-2018 20.8 (15:00) 5.6 (00:00) 13.2 7.5 (01:30) 3.89 (01:30) 0 0 0 0 0
10-11-2018 15.4 (15:00) 7 (00:00) 11.2 10.83 (11:50) 6.67 (00:30) 0 0 0 0 0
09-11-2018 11.7 (14:40) 5.7 (00:00) 8.7 14.44 (16:10) 6.67 (08:10) 0.6 0.4 0.2 0 0

Gráficas

Temp. máximas Temp. mínimas Temp. medias Precipitaciones Rachas de viento máximas Velocidades máximas media en intervalos de 10 minutos

Datos horarios

Fecha y hora oficial Temperatura (ºC) Velocidad del viento (km/h) Dirección del viento Racha (km/h) Dirección de racha Precipitación (mm) Presión (hPa) Tendencia (hPa) Humedad (%)
2018-12-08 23:00:00 8.2 3 Sudoeste 21 Oeste 0 -- -- 75
2018-12-08 22:00:00 8.6 9 Oeste 18 Noroeste 0 -- -- 76
2018-12-08 21:00:00 8.6 5 Sudoeste 13 Oeste 0 -- -- 76
2018-12-08 20:00:00 7.5 3 Sudoeste 12 Sur 0 -- -- 78
2018-12-08 19:00:00 9.3 3 Sudoeste 12 Oeste 0 -- -- 71
2018-12-08 18:00:00 10.4 3 Oeste 9 Oeste 0 -- -- 62
2018-12-08 17:00:00 14.3 5 Oeste 14 Oeste 0 -- -- 49
2018-12-08 16:00:00 15.8 4 Noroeste 10 Nordeste 0 -- -- 47
2018-12-08 15:00:00 15.5 3 Norte 13 Norte 0 -- -- 49
2018-12-08 14:00:00 15.8 3 Norte 10 Norte 0 -- -- 49
2018-12-08 13:00:00 14.9 3 Nordeste 11 Nordeste 0 -- -- 53
2018-12-08 12:00:00 13.1 3 Sudoeste 10 Noroeste 0 -- -- 59
2018-12-08 11:00:00 10.5 3 Oeste 13 Noroeste 0 -- -- 70
2018-12-08 10:00:00 8.1 0 Calma 8 Noroeste 0 -- -- 83
2018-12-08 09:00:00 5.2 2 Sudoeste 8 Sur 0 -- -- 93
2018-12-08 08:00:00 4.3 3 Sudoeste 9 Sur 0 -- -- 88
2018-12-08 07:00:00 5.2 0 Calma 8 Oeste 0 -- -- 84
2018-12-08 06:00:00 7.6 0 Calma 9 Noroeste 0 -- -- 78
2018-12-08 05:00:00 8.5 3 Sur 15 Noroeste 0 -- -- 78
2018-12-08 04:00:00 10.8 5 Oeste 21 Oeste 0 -- -- 70
2018-12-08 03:00:00 10.5 9 Noroeste 24 Noroeste 0 -- -- 71
2018-12-08 02:00:00 10.8 7 Oeste 31 Noroeste 0 -- -- 71
2018-12-08 01:00:00 11.2 10 Oeste 28 Noroeste 0 -- -- 68
2018-12-08 00:00:00 9 3 Sudeste 12 Sur 0 -- -- 74
2018-12-07 23:00:00 9.4 6 Sudoeste 15 Noroeste 0 -- -- 67
2018-12-07 22:00:00 7.2 2 Norte 9 Norte 0 -- -- 75
2018-12-07 21:00:00 9 2 Norte 10 Sur 0 -- -- 66
2018-12-07 20:00:00 10.4 5 Oeste 16 Noroeste 0 -- -- 61
2018-12-07 19:00:00 10.9 6 Sur 14 Sudeste 0 -- -- 61
2018-12-07 18:00:00 12.4 4 Sudoeste 31 Oeste 0 -- -- 53
2018-12-07 17:00:00 15.1 9 Oeste 29 Oeste 0 -- -- 46
2018-12-07 16:00:00 16.7 17 Oeste 35 Oeste 0 -- -- 38
2018-12-07 15:00:00 17.8 17 Oeste 37 Noroeste 0 -- -- 34
2018-12-07 14:00:00 17.7 11 Noroeste 30 Noroeste 0 -- -- 38
2018-12-07 13:00:00 16.6 13 Noroeste 28 Noroeste 0 -- -- 51
2018-12-07 12:00:00 14.5 8 Oeste 22 Oeste 0 -- -- 64
2018-12-07 11:00:00 11 6 Oeste 17 Oeste 0 -- -- 77
2018-12-07 10:00:00 6.3 4 Oeste 12 Oeste 0 -- -- 98
2018-12-07 09:00:00 0.4 0 Calma 3 Sudoeste 0 -- -- 96
2018-12-07 08:00:00 0.4 0 Calma 5 Sudoeste 0 -- -- 94
2018-12-07 07:00:00 1.2 2 Sudoeste 6 Sudoeste 0 -- -- 94
2018-12-07 06:00:00 1.5 0 Calma 4 Sudoeste 0 -- -- 93
2018-12-07 05:00:00 3.2 0 Calma 9 Sudoeste 0 -- -- 94
2018-12-07 04:00:00 2.5 3 Sudoeste 7 Sudoeste 0 -- -- 94
2018-12-07 03:00:00 3 0 Calma 6 Sudoeste 0 -- -- 91
2018-12-07 02:00:00 4.5 2 Sudoeste 8 Sur 0 -- -- 90
2018-12-07 01:00:00 5.6 3 Sur 8 Sur 0 -- -- 91
2018-12-07 00:00:00 6.8 3 Sur 11 Sudoeste 0 -- -- 91
2018-12-06 23:00:00 6 3 Sudoeste 8 Sudoeste 0 -- -- 87
2018-12-06 22:00:00 7.1 2 Sudoeste 6 Sudoeste 0 -- -- 84
2018-12-06 21:00:00 8 3 Sudoeste 7 Sudoeste 0 -- -- 80
2018-12-06 20:00:00 9.7 3 Este 9 Oeste 0 -- -- 74
2018-12-06 19:00:00 10.3 4 Sudoeste 9 Sudoeste 0 -- -- 69
2018-12-06 18:00:00 13.2 0 Calma 6 Oeste 0 -- -- 59
2018-12-06 17:00:00 17.8 3 Oeste 9 Noroeste 0 -- -- 47
2018-12-06 16:00:00 20.1 3 Norte 8 Nordeste 0 -- -- 39
2018-12-06 15:00:00 20.4 3 Norte 9 Nordeste 0 -- -- 42
2018-12-06 14:00:00 19.7 3 Norte 10 Nordeste 0 -- -- 46
2018-12-06 13:00:00 17.9 3 Norte 6 Norte 0 -- -- 52
2018-12-06 12:00:00 15.1 0 Calma 10 Nordeste 0 -- -- 59
2018-12-06 11:00:00 11.9 0 Calma 10 Noroeste 0 -- -- 71
2018-12-06 10:00:00 8.7 4 Noroeste 11 Oeste 0 -- -- 81
2018-12-06 09:00:00 6.3 3 Oeste 9 Sudoeste 0 -- -- 87
2018-12-06 08:00:00 5.6 0 Calma 8 Oeste 0 -- -- 83
2018-12-06 07:00:00 7.2 3 Sudoeste 10 Sudoeste 0 -- -- 79
2018-12-06 06:00:00 7.6 3 Sudoeste 7 Sudoeste 0 -- -- 81
2018-12-06 05:00:00 8.8 2 Sudoeste 17 Oeste 0 -- -- 75
2018-12-06 04:00:00 9.8 7 Oeste 18 Oeste 0 -- -- 72
2018-12-06 03:00:00 10.8 10 Oeste 23 Oeste 0 -- -- 68
2018-12-06 02:00:00 8.1 4 Oeste 12 Sudoeste 0 -- -- 77
2018-12-06 01:00:00 9.1 3 Sudoeste 10 Oeste 0 -- -- 70
2018-12-06 00:00:00 11.8 4 Oeste 15 Oeste 0 -- -- 63
2018-12-05 23:00:00 11.7 6 Oeste 15 Oeste 0 -- -- 62
2018-12-05 22:00:00 9.1 6 Oeste 15 Oeste 0 -- -- 69
2018-12-05 21:00:00 9.3 0 Calma 10 Sudoeste 0 -- -- 67
2018-12-05 20:00:00 11.1 4 Sudoeste 9 Sudoeste 0 -- -- 59
2018-12-05 19:00:00 12.8 2 Sudoeste 7 Noroeste 0 -- -- 55
2018-12-05 18:00:00 15.9 2 Oeste 7 Oeste 0 -- -- 47
2018-12-05 17:00:00 21 5 Oeste 17 Oeste 0 -- -- 36
2018-12-05 16:00:00 23.9 8 Oeste 21 Oeste 0 -- -- 28
2018-12-05 15:00:00 24.4 9 Oeste 18 Oeste 0 -- -- 30
2018-12-05 14:00:00 23.1 7 Oeste 16 Oeste 0 -- -- 35
2018-12-05 13:00:00 19.1 2 Nordeste 6 Nordeste 0 -- -- 49
2018-12-05 12:00:00 16.1 2 Norte 4 Nordeste 0 -- -- 56
2018-12-05 11:00:00 11.4 2 Norte 5 Noroeste 0 -- -- 73
2018-12-05 10:00:00 6.6 0 Calma 2 Oeste 0 -- -- 98
2018-12-05 09:00:00 2.8 0 Calma 2 Sudoeste 0 -- -- 96
2018-12-05 08:00:00 2.4 0 Calma 3 Sudoeste 0 -- -- 94
2018-12-05 07:00:00 2.6 0 Calma 4 Oeste 0 -- -- 93
2018-12-05 06:00:00 3.1 0 Calma 2 Sudoeste 0 -- -- 92
2018-12-05 05:00:00 3.5 0 Calma 2 Sudoeste 0 -- -- 92
2018-12-05 04:00:00 3.8 0 Calma 3 Sudoeste 0 -- -- 91
2018-12-05 03:00:00 4.2 0 Calma 3 Sudoeste 0 -- -- 89
2018-12-05 02:00:00 4.5 0 Calma 5 Oeste 0 -- -- 87
2018-12-05 01:00:00 5.3 5 Sudoeste 8 Oeste 0 -- -- 86
2018-12-05 00:00:00 5.4 0 Calma 4 Sudoeste 0 -- -- 84
2018-12-04 23:00:00 6.9 2 Oeste 10 Sudoeste 0 -- -- 81
2018-12-04 22:00:00 7.6 3 Sudoeste 9 Sudoeste 0 -- -- 79
2018-12-04 21:00:00 8.3 3 Sudoeste 10 Sudoeste 0 -- -- 76
2018-12-04 20:00:00 9.2 2 Sudoeste 3 Sudoeste 0 -- -- 72
2018-12-04 19:00:00 11.9 0 Calma 10 Sudoeste 0 -- -- 64
2018-12-04 18:00:00 14.9 5 Sudoeste 9 Sur 0 -- -- 57
2018-12-04 17:00:00 19.7 4 Sudoeste 9 Sudoeste 0 -- -- 46
2018-12-04 16:00:00 22.5 4 Oeste 11 Sudoeste 0 -- -- 36
2018-12-04 15:00:00 21.6 3 Nordeste 8 Nordeste 0 -- -- 40
2018-12-04 14:00:00 20.3 3 Este 10 Este 0 -- -- 42
2018-12-04 13:00:00 18.4 3 Norte 6 Norte 0 -- -- 46
2018-12-04 12:00:00 15.1 3 Nordeste 6 Nordeste 0 -- -- 52
2018-12-04 11:00:00 11.4 0 Calma 4 Norte 0 -- -- 61
2018-12-04 10:00:00 6.4 0 Calma 4 Oeste 0 -- -- 86
2018-12-04 09:00:00 2.6 0 Calma 4 Sudoeste 0 -- -- 88
2018-12-04 08:00:00 2.5 0 Calma 6 Sudoeste 0 -- -- 85
2018-12-04 07:00:00 2.2 2 Oeste 4 Sudoeste 0 -- -- 84
2018-12-04 06:00:00 2.7 0 Calma 4 Sur 0 -- -- 81
2018-12-04 05:00:00 3.2 2 Sudoeste 5 Sudoeste 0 -- -- 78
2018-12-04 04:00:00 4.1 0 Calma 6 Sudoeste 0 -- -- 74
2018-12-04 03:00:00 5.1 2 Sudoeste 5 Sudoeste 0 -- -- 69
2018-12-04 02:00:00 6.4 2 Sur 8 Sudoeste 0 -- -- 64
2018-12-04 01:00:00 6.6 2 Sur 7 Oeste 0 -- -- 61
2018-12-04 00:00:00 8.3 3 Noroeste 9 Sudoeste 0 -- -- 52
2018-12-03 23:00:00 8.4 0 Calma 9 Oeste 0 -- -- 51
2018-12-03 22:00:00 9.7 2 Sudoeste 24 Oeste 0 -- -- 45
2018-12-03 21:00:00 10.8 5 Sudoeste 20 Oeste 0 -- -- 38
2018-12-03 20:00:00 11.1 7 Oeste 20 Oeste 0 -- -- 34
2018-12-03 19:00:00 12.7 6 Oeste 15 Oeste 0 -- -- 31
2018-12-03 18:00:00 14.3 3 Nordeste 24 Oeste 0 -- -- 29
2018-12-03 17:00:00 16.4 11 Oeste 27 Oeste 0 -- -- 27
2018-12-03 16:00:00 18.9 8 Noroeste 24 Oeste 0 -- -- 24
2018-12-03 15:00:00 19.5 12 Oeste 26 Noroeste 0 -- -- 23
2018-12-03 14:00:00 18.8 10 Noroeste 28 Oeste 0 -- -- 23
2018-12-03 13:00:00 18.1 4 Noroeste 21 Oeste 0 -- -- 28
2018-12-03 12:00:00 16.6 7 Noroeste 20 Oeste 0 -- -- 31
2018-12-03 11:00:00 14 9 Noroeste 22 Oeste 0 -- -- 43
2018-12-03 10:00:00 11.4 14 Oeste 26 Oeste 0 -- -- 52
2018-12-03 09:00:00 9.4 10 Oeste 20 Noroeste 0 -- -- 56
2018-12-03 08:00:00 8.7 9 Oeste 21 Oeste 0 -- -- 56
2018-12-03 07:00:00 9.2 7 Noroeste 26 Oeste 0 -- -- 61
2018-12-03 06:00:00 9.7 17 Oeste 45 Oeste 0 -- -- 64
2018-12-03 05:00:00 9.2 8 Oeste 23 Oeste 0 -- -- 63
2018-12-03 04:00:00 10.1 10 Oeste 23 Oeste 0 -- -- 53
2018-12-03 03:00:00 10 10 Oeste 23 Oeste 0 -- -- 57
2018-12-03 02:00:00 9.6 10 Oeste 22 Oeste 0 -- -- 67
2018-12-03 01:00:00 8.7 2 Sudoeste 13 Oeste 0 -- -- 73
2018-12-03 00:00:00 9.8 6 Oeste 19 Oeste 0 -- -- 70
2018-12-02 23:00:00 10.1 8 Oeste 23 Oeste 0 -- -- 68
2018-12-02 22:00:00 9.6 0 Calma 18 Sudoeste 0 -- -- 66
2018-12-02 21:00:00 10.5 2 Oeste 27 Oeste 0 -- -- 57
2018-12-02 20:00:00 11.1 7 Oeste 19 Oeste 0 -- -- 55
2018-12-02 19:00:00 12.6 7 Oeste 23 Noroeste 0 -- -- 45
2018-12-02 18:00:00 13.2 4 Noroeste 30 Noroeste 0 -- -- 43
2018-12-02 17:00:00 14.7 14 Oeste 30 Oeste 0 -- -- 50
2018-12-02 16:00:00 16.8 13 Oeste 27 Noroeste 0 -- -- 46
2018-12-02 15:00:00 16.6 10 Oeste 21 Oeste 0 -- -- 44
2018-12-02 14:00:00 15.9 12 Oeste 24 Oeste 0 -- -- 48
2018-12-02 13:00:00 15.2 9 Noroeste 20 Noroeste 0 -- -- 51
2018-12-02 12:00:00 14.3 8 Noroeste 22 Oeste 0 -- -- 54
2018-12-02 11:00:00 12.3 14 Oeste 27 Oeste 0 -- -- 60
2018-12-02 10:00:00 10.2 10 Oeste 28 Oeste 0 -- -- 64
2018-12-02 09:00:00 8.2 7 Sudoeste 14 Noroeste 0 -- -- 68
2018-12-02 08:00:00 6.4 2 Sudoeste 13 Noroeste 0 -- -- 76
2018-12-02 07:00:00 7.4 8 Oeste 21 Oeste 0 -- -- 71
2018-12-02 06:00:00 8.2 11 Oeste 30 Noroeste 0 -- -- 69
2018-12-02 05:00:00 7.9 12 Oeste 28 Noroeste 0 -- -- 71
2018-12-02 04:00:00 8.3 14 Oeste 31 Oeste 0 -- -- 68
2018-12-02 03:00:00 9 18 Noroeste 40 Oeste 0 -- -- 67
2018-12-02 02:00:00 8.1 13 Noroeste 36 Oeste 0 -- -- 72
2018-12-02 01:00:00 8.3 13 Noroeste 42 Oeste 0 -- -- 71
2018-12-02 00:00:00 8.4 15 Oeste 26 Oeste 0 -- -- 69
2018-12-01 23:00:00 8.8 10 Oeste 20 Oeste 0 -- -- 67
2018-12-01 22:00:00 9.3 12 Noroeste 23 Oeste 0 -- -- 64
2018-12-01 21:00:00 8.6 6 Oeste 17 Sudoeste 0 -- -- 65
2018-12-01 20:00:00 8.6 2 Sudoeste 24 Oeste 0 -- -- 61
2018-12-01 19:00:00 9.4 10 Oeste 28 Noroeste 0 -- -- 60
2018-12-01 18:00:00 10 8 Noroeste 30 Oeste 0 -- -- 60
2018-12-01 17:00:00 11.3 18 Oeste 37 Oeste 0 -- -- 54
2018-12-01 16:00:00 13.3 6 Oeste 27 Noroeste 0 -- -- 44
2018-12-01 15:00:00 13.3 12 Oeste 36 Oeste 0 -- -- 48
2018-12-01 14:00:00 12.6 12 Noroeste 36 Noroeste 0 -- -- 47
2018-12-01 13:00:00 12.1 18 Noroeste 36 Oeste 0 -- -- 49
2018-12-01 12:00:00 11.2 14 Oeste 30 Noroeste 0 -- -- 54
2018-12-01 11:00:00 9 10 Noroeste 28 Oeste 0 -- -- 61
2018-12-01 10:00:00 7.2 4 Noroeste 29 Noroeste 0 -- -- 64
2018-12-01 09:00:00 5.6 10 Noroeste 28 Noroeste 0 -- -- 64
2018-12-01 08:00:00 3.2 6 Oeste 17 Oeste 0 -- -- 76
2018-12-01 07:00:00 1.8 6 Oeste 14 Oeste 0 -- -- 84
2018-12-01 06:00:00 1.6 4 Sur 10 Sur 0 -- -- 85
2018-12-01 05:00:00 0.9 0 Calma 8 Sudoeste 0 -- -- 88
2018-12-01 04:00:00 1.7 0 Calma 6 Sudoeste 0 -- -- 84
2018-12-01 03:00:00 2.7 5 Oeste 13 Oeste 0 -- -- 82
2018-12-01 02:00:00 3.1 5 Oeste 18 Oeste 0 -- -- 80
2018-12-01 01:00:00 3.2 3 Oeste 13 Oeste 0 -- -- 81
2018-12-01 00:00:00 4.1 7 Oeste 17 Oeste 0 -- -- 79
2018-11-30 23:00:00 4.3 4 Oeste 17 Oeste 0 -- -- 77
2018-11-30 22:00:00 4.7 6 Oeste 12 Oeste 0 -- -- 76
2018-11-30 21:00:00 4.4 3 Sudoeste 6 Sudoeste 0 -- -- 77
2018-11-30 20:00:00 7 0 Calma 20 Oeste 0 -- -- 67
2018-11-30 19:00:00 8 9 Noroeste 22 Oeste 0 -- -- 64
2018-11-30 18:00:00 8.6 8 Oeste 21 Oeste 0 -- -- 63
2018-11-30 17:00:00 10.4 8 Noroeste 24 Oeste 0 -- -- 57
2018-11-30 16:00:00 11.4 9 Noroeste 31 Oeste 0 -- -- 59
2018-11-30 15:00:00 12.1 10 Noroeste 36 Noroeste 0 -- -- 61
2018-11-30 14:00:00 11.2 20 Noroeste 39 Oeste 0 -- -- 66
2018-11-30 13:00:00 11 14 Noroeste 33 Noroeste 0 -- -- 73
2018-11-30 12:00:00 10.1 10 Noroeste 24 Noroeste 0 -- -- 74
2018-11-30 11:00:00 8.7 9 Noroeste 23 Noroeste 0 -- -- 82
2018-11-30 10:00:00 8 7 Noroeste 19 Oeste 0 -- -- 90
2018-11-30 09:00:00 7.8 2 Oeste 7 Noroeste 0 -- -- 91
2018-11-30 08:00:00 7.5 3 Oeste 21 Oeste 0 -- -- 88
2018-11-30 07:00:00 7.7 4 Noroeste 16 Oeste 0 -- -- 86
2018-11-30 06:00:00 8.1 3 Noroeste 18 Noroeste 0 -- -- 82
2018-11-30 05:00:00 7.1 7 Oeste 19 Oeste 0 -- -- 82
2018-11-30 04:00:00 6.6 6 Oeste 15 Oeste 0 -- -- 80
2018-11-30 03:00:00 7.4 5 Oeste 19 Oeste 0 -- -- 70
2018-11-30 02:00:00 8.4 11 Oeste 25 Oeste 0 -- -- 62
2018-11-30 01:00:00 8.7 4 Noroeste 18 Oeste 0 -- -- 53
2018-11-30 00:00:00 9 7 Oeste 18 Oeste 0 -- -- 46
2018-11-29 23:00:00 6.7 6 Oeste 17 Oeste 0 -- -- 55
2018-11-29 22:00:00 5.2 4 Sudoeste 8 Sudoeste 0 -- -- 57
2018-11-29 21:00:00 6.1 3 Sudoeste 8 Oeste 0 -- -- 52
2018-11-29 20:00:00 8.1 3 Sudoeste 10 Sudoeste 0 -- -- 48
2018-11-29 19:00:00 9.4 6 Sudoeste 10 Sudoeste 0 -- -- 44
2018-11-29 18:00:00 11.5 5 Sudoeste 9 Sudoeste 0 -- -- 42
2018-11-29 17:00:00 14.7 2 Sudoeste 8 Oeste 0 -- -- 36
2018-11-29 16:00:00 18.5 2 Noroeste 14 Oeste 0 -- -- 23
2018-11-29 15:00:00 19.4 6 Oeste 20 Oeste 0 -- -- 18
2018-11-29 14:00:00 18.9 5 Oeste 14 Oeste 0 -- -- 18
2018-11-29 13:00:00 17.5 7 Oeste 19 Noroeste 0 -- -- 21
2018-11-29 12:00:00 13.7 4 Noroeste 8 Norte 0 -- -- 38
2018-11-29 11:00:00 8.3 2 Noroeste 5 Noroeste 0 -- -- 57
2018-11-29 10:00:00 2.5 0 Calma 3 Sudoeste 0 -- -- 72
2018-11-29 09:00:00 -2.1 0 Calma 5 Sur 0 -- -- 82
2018-11-29 08:00:00 -2.7 2 Oeste 6 Sudoeste 0 -- -- 81
2018-11-29 07:00:00 -1.9 0 Calma 7 Sudoeste 0 -- -- 77
2018-11-29 06:00:00 -0.7 2 Sudoeste 9 Sudoeste 0 -- -- 69
2018-11-29 05:00:00 0 3 Sudoeste 9 Sudoeste 0 -- -- 66
2018-11-29 04:00:00 -0.1 2 Sudoeste 6 Sudoeste 0 -- -- 72
2018-11-29 03:00:00 0.5 2 Sudoeste 8 Sudoeste 0 -- -- 73
2018-11-29 02:00:00 1.2 2 Sudoeste 9 Sudoeste 0 -- -- 68
2018-11-29 01:00:00 2.1 3 Sudoeste 6 Sudoeste 0 -- -- 69
2018-11-29 00:00:00 3.7 0 Calma 9 Sudoeste 0 -- -- 66
2018-11-28 23:00:00 4.6 3 Sur 11 Sudoeste 0 -- -- 62
2018-11-28 22:00:00 5.4 3 Sudoeste 10 Sudoeste 0 -- -- 60
2018-11-28 21:00:00 6.1 2 Sudoeste 14 Sudoeste 0 -- -- 58
2018-11-28 14:00:00 -- -- -- -- -- -- -- -- --
2018-11-28 13:00:00 -- -- -- -- -- -- -- -- --
2018-11-28 12:00:00 13.3 8 Noroeste 18 Oeste 0 -- -- 51
2018-11-28 11:00:00 10.7 9 Oeste 19 Oeste 0 -- -- 63
2018-11-28 10:00:00 7.8 4 Oeste 10 Oeste 0 -- -- 74
2018-11-28 09:00:00 3.7 3 Oeste 9 Noroeste 0 -- -- 89
2018-11-28 08:00:00 3.3 3 Sudoeste 8 Oeste 0 -- -- 88
2018-11-28 07:00:00 3.9 3 Oeste 10 Oeste 0 -- -- 85
2018-11-28 06:00:00 4 0 Calma 9 Oeste 0 -- -- 85
2018-11-28 05:00:00 5.4 4 Oeste 13 Sudoeste 0 -- -- 81
2018-11-28 04:00:00 6.3 3 Sudoeste 11 Oeste 0 -- -- 78
2018-11-28 03:00:00 6.2 8 Oeste 25 Oeste 0 -- -- 80
2018-11-28 02:00:00 5.3 5 Oeste 13 Sudoeste 0 -- -- 84
2018-11-28 01:00:00 4.7 2 Oeste 18 Oeste 0 -- -- 82
2018-11-28 00:00:00 5.2 4 Noroeste 14 Noroeste 0 -- -- 81
2018-11-27 23:00:00 5.5 3 Sudoeste 13 Oeste 0 -- -- 81
2018-11-27 22:00:00 5.9 5 Oeste 12 Oeste 0 -- -- 78
2018-11-27 21:00:00 7 5 Sudoeste 24 Oeste 0 -- -- 74
2018-11-27 20:00:00 8.5 12 Oeste 24 Oeste 0 -- -- 69
2018-11-27 19:00:00 9.6 11 Noroeste 32 Oeste 0 -- -- 62
2018-11-27 18:00:00 9.8 18 Oeste 32 Oeste 0 -- -- 63
2018-11-27 17:00:00 11.7 11 Oeste 23 Oeste 0 -- -- 54
2018-11-27 16:00:00 13.4 12 Oeste 24 Oeste 0 -- -- 47
2018-11-27 15:00:00 14.5 13 Oeste 27 Noroeste 0 -- -- 45
2018-11-27 14:00:00 14.1 6 Noroeste 29 Oeste 0 -- -- 41
2018-11-27 13:00:00 13.2 15 Oeste 28 Oeste 0 -- -- 47
2018-11-27 12:00:00 12.6 9 Noroeste 26 Oeste 0 -- -- 48
2018-11-27 11:00:00 9.7 5 Noroeste 14 Noroeste 0 -- -- 60
2018-11-27 10:00:00 8.4 4 Noroeste 15 Oeste 0 -- -- 62
2018-11-27 09:00:00 6.5 7 Noroeste 21 Noroeste 0 -- -- 69
2018-11-27 08:00:00 5.6 10 Oeste 27 Noroeste 0 -- -- 74
2018-11-27 07:00:00 5.9 9 Noroeste 22 Oeste 0 -- -- 73
2018-11-27 06:00:00 5.7 0 Calma 21 Noroeste 0 -- -- 75
2018-11-27 05:00:00 6.2 9 Noroeste 22 Noroeste 0 -- -- 74
2018-11-27 04:00:00 6.2 9 Oeste 27 Noroeste 0 -- -- 73
2018-11-27 03:00:00 6.5 14 Noroeste 29 Noroeste 0 -- -- 73
2018-11-27 02:00:00 6.5 8 Noroeste 36 Noroeste 0 -- -- 72
2018-11-27 01:00:00 6.6 18 Oeste 37 Noroeste 0 -- -- 72
2018-11-27 00:00:00 7 8 Oeste 31 Norte 0 -- -- 71
2018-11-26 23:00:00 7.7 14 Noroeste 39 Oeste 0 -- -- 68
2018-11-26 22:00:00 7 18 Oeste 35 Oeste 0 -- -- 74
2018-11-26 21:00:00 6.8 18 Oeste 33 Oeste 0 -- -- 74
2018-11-26 20:00:00 7.7 17 Oeste 29 Noroeste 0 -- -- 71
2018-11-26 19:00:00 7.7 11 Oeste 26 Oeste 0 -- -- 76
2018-11-26 18:00:00 8.8 10 Noroeste 31 Oeste 0 -- -- 69
2018-11-26 17:00:00 9.8 13 Noroeste 35 Norte 0 -- -- 67
2018-11-26 16:00:00 10.9 13 Noroeste 41 Noroeste 0 -- -- 64
2018-11-26 15:00:00 11.7 17 Noroeste 43 Oeste 0 -- -- 59
2018-11-26 14:00:00 10.5 14 Noroeste 53 Oeste 0 -- -- 64
2018-11-26 13:00:00 10.3 22 Noroeste 55 Oeste 0 -- -- 64
2018-11-26 12:00:00 10 22 Noroeste 63 Oeste 0 -- -- 63
2018-11-26 11:00:00 8.8 27 Oeste 56 Oeste 0 -- -- 66
2018-11-26 10:00:00 7.4 28 Oeste 53 Oeste 0 -- -- 72
2018-11-26 09:00:00 6.2 24 Oeste 55 Oeste 0 -- -- 77
2018-11-26 08:00:00 6.6 28 Oeste 62 Oeste 0 -- -- 75
2018-11-26 07:00:00 7.8 28 Oeste 56 Oeste 0 -- -- 73
2018-11-26 06:00:00 8.5 26 Oeste 64 Oeste 0 -- -- 76
2018-11-26 05:00:00 10.1 24 Oeste 48 Oeste 0 -- -- 79
2018-11-26 04:00:00 9.6 6 Oeste 17 Oeste 0 -- -- 92
2018-11-26 03:00:00 9.2 4 Sudoeste 15 Sudoeste 0 -- -- 91
2018-11-26 02:00:00 9.8 3 Sudoeste 10 Oeste 1 -- -- 92
2018-11-26 01:00:00 10.1 3 Sudoeste 14 Oeste 0.4 -- -- 91
2018-11-26 00:00:00 11 6 Oeste 18 Oeste 0 -- -- 86
2018-11-25 23:00:00 10.2 5 Oeste 13 Noroeste 0 -- -- 83
2018-11-25 22:00:00 10.6 3 Sudoeste 17 Oeste 0 -- -- 81
2018-11-25 21:00:00 11.4 8 Oeste 34 Oeste 0 -- -- 79
2018-11-25 20:00:00 11.7 15 Oeste 34 Oeste 0 -- -- 78
2018-11-25 19:00:00 11.7 8 Oeste 26 Oeste 0 -- -- 73
2018-11-25 18:00:00 12.6 11 Oeste 34 Oeste 0 -- -- 69
2018-11-25 17:00:00 13.4 12 Oeste 41 Oeste 0 -- -- 68
2018-11-25 16:00:00 13.9 20 Oeste 47 Oeste 0 -- -- 66
2018-11-25 15:00:00 15.1 22 Oeste 47 Oeste 0 -- -- 60
2018-11-25 14:00:00 14.2 22 Oeste 54 Oeste 0 -- -- 68
2018-11-25 13:00:00 13.8 20 Oeste 42 Oeste 0 -- -- 68
2018-11-25 12:00:00 14 16 Oeste 48 Oeste 0 -- -- 64
2018-11-25 11:00:00 12.6 12 Oeste 26 Oeste 0 -- -- 72
2018-11-25 10:00:00 8.4 2 Nordeste 12 Oeste 0 -- -- 82
2018-11-25 09:00:00 7.3 2 Sudoeste 12 Sudoeste 0 -- -- 83
2018-11-25 08:00:00 6.7 2 Sudoeste 15 Sur 0 -- -- 81
2018-11-25 07:00:00 6 4 Sudoeste 16 Sudoeste 0.2 -- -- 82
2018-11-25 06:00:00 4.8 7 Oeste 19 Oeste 0 -- -- 94
2018-11-25 05:00:00 2.9 0 Calma 6 Sur 0 -- -- 88
2018-11-25 04:00:00 4.1 4 Sudoeste 10 Sudoeste 0 -- -- 82
2018-11-25 03:00:00 5 3 Sudoeste 11 Sudoeste 0 -- -- 81
2018-11-25 02:00:00 3.9 4 Sudoeste 10 Oeste 0 -- -- 84
2018-11-25 01:00:00 5 5 Oeste 20 Oeste 0 -- -- 80
2018-11-25 00:00:00 3.5 3 Sudoeste 10 Sudoeste 0 -- -- 89
2018-11-24 23:00:00 4.4 5 Oeste 12 Oeste 0 -- -- 86
2018-11-24 22:00:00 4.7 5 Oeste 12 Oeste 0 -- -- 82
2018-11-24 21:00:00 5 4 Oeste 13 Oeste 0 -- -- 82
2018-11-24 20:00:00 4.3 3 Sudoeste 9 Oeste 0 -- -- 83
2018-11-24 19:00:00 5.3 4 Sudoeste 10 Oeste 0 -- -- 79
2018-11-24 18:00:00 7.4 4 Oeste 21 Oeste 0 -- -- 68
2018-11-24 17:00:00 9.3 9 Noroeste 25 Noroeste 0 -- -- 61
2018-11-24 16:00:00 10.7 11 Noroeste 24 Oeste 0 -- -- 59
2018-11-24 15:00:00 12 9 Noroeste 22 Oeste 0 -- -- 56
2018-11-24 14:00:00 12 8 Noroeste 22 Oeste 0 -- -- 53
2018-11-24 13:00:00 11.4 8 Noroeste 21 Oeste 0 -- -- 57
2018-11-24 12:00:00 9.8 9 Noroeste 21 Noroeste 0 -- -- 68
2018-11-24 11:00:00 7.9 5 Noroeste 14 Noroeste 0 -- -- 82
2018-11-24 10:00:00 5.2 4 Oeste 13 Oeste 0 -- -- 96
2018-11-24 09:00:00 3 4 Noroeste 15 Oeste 0 -- -- 98
2018-11-24 08:00:00 1.4 4 Oeste 11 Sudoeste 0 -- -- 97
2018-11-24 07:00:00 0.6 2 Sudoeste 6 Sudoeste 0 -- -- 96
2018-11-24 06:00:00 1.1 3 Sudoeste 8 Sudoeste 0 -- -- 95
2018-11-24 05:00:00 2.3 2 Sudoeste 9 Oeste 0 -- -- 95
2018-11-24 04:00:00 2.3 0 Calma 8 Oeste 0 -- -- 94
2018-11-24 03:00:00 2.4 2 Sudoeste 8 Sudoeste 0 -- -- 93
2018-11-24 02:00:00 3.1 3 Sudoeste 9 Sudoeste 0 -- -- 91
2018-11-24 01:00:00 4.3 2 Sudoeste 14 Oeste 0 -- -- 88
2018-11-24 00:00:00 5 7 Oeste 15 Oeste 0 -- -- 87
2018-11-23 23:00:00 4 4 Sudoeste 12 Sudoeste 0 -- -- 91
2018-11-23 22:00:00 4.3 3 Sudoeste 9 Oeste 0 -- -- 92
2018-11-23 21:00:00 4.8 2 Sudoeste 6 Oeste 0 -- -- 91
2018-11-23 20:00:00 6.3 3 Sudoeste 11 Noroeste 0 -- -- 87
2018-11-23 19:00:00 7.7 5 Oeste 15 Noroeste 0 -- -- 84
2018-11-23 18:00:00 8.9 5 Oeste 19 Oeste 0 -- -- 80
2018-11-23 17:00:00 9.9 10 Oeste 24 Noroeste 0 -- -- 76
2018-11-23 16:00:00 10.6 6 Noroeste 26 Oeste 0 -- -- 75
2018-11-23 15:00:00 10.8 9 Noroeste 28 Oeste 0 -- -- 75
2018-11-23 14:00:00 11 9 Noroeste 24 Oeste 0 -- -- 78
2018-11-23 13:00:00 11.5 12 Noroeste 31 Oeste 0 -- -- 77
2018-11-23 12:00:00 10.3 9 Noroeste 27 Oeste 0 -- -- 85
2018-11-23 11:00:00 10.1 11 Oeste 23 Oeste 0 -- -- 95
2018-11-23 10:00:00 9.4 2 Noroeste 8 Noroeste 0.4 -- -- 97
2018-11-23 09:00:00 8.6 0 Calma 4 Este 2.2 -- -- 97
2018-11-23 08:00:00 8.3 0 Calma 4 Noroeste 2.2 -- -- 96
2018-11-23 07:00:00 7.9 2 Nordeste 5 Sur 0.2 -- -- 95
2018-11-23 06:00:00 7.9 0 Calma 2 Sur 0 -- -- 93
2018-11-23 05:00:00 8.2 0 Calma 2 Sur 0 -- -- 93
2018-11-23 04:00:00 8.1 0 Calma 2 Noroeste 0 -- -- 93
2018-11-23 03:00:00 7.7 0 Calma 6 Este 0 -- -- 94
2018-11-23 02:00:00 7.1 2 Sudeste 4 Sudeste 0 -- -- 93
2018-11-23 01:00:00 7.3 0 Calma 2 Sudoeste 0 -- -- 91
2018-11-23 00:00:00 7.9 0 Calma 3 Sudeste 0 -- -- 89
2018-11-22 23:00:00 8.1 0 Calma 4 Sudeste 0 -- -- 89
2018-11-22 22:00:00 8.6 0 Calma 6 Sudoeste 0 -- -- 86
2018-11-22 21:00:00 8.8 3 Sur 8 Sudoeste 0 -- -- 87
2018-11-22 20:00:00 8.8 0 Calma 5 Sudoeste 0 -- -- 86
2018-11-22 19:00:00 9.5 0 Calma 7 Sudoeste 0 -- -- 83
2018-11-22 18:00:00 10.3 0 Calma 8 Sur 0 -- -- 81
2018-11-22 17:00:00 11.5 3 Sudeste 6 Sur 0 -- -- 74
2018-11-22 16:00:00 12.5 0 Calma 12 Nordeste 0 -- -- 65
2018-11-22 15:00:00 12.7 0 Calma 7 Noroeste 0 -- -- 67
2018-11-22 14:00:00 12.5 0 Calma 6 Sudeste 0 -- -- 64
2018-11-22 13:00:00 11.6 3 Este 6 Nordeste 0 -- -- 76
2018-11-22 12:00:00 10.3 2 Nordeste 6 Nordeste 0 -- -- 80
2018-11-22 11:00:00 9.6 2 Este 5 Norte 0 -- -- 86
2018-11-22 10:00:00 8.2 0 Calma 7 Sudeste 0 -- -- 90
2018-11-22 09:00:00 6 0 Calma 3 Oeste 0 -- -- 95
2018-11-22 08:00:00 5.7 0 Calma 4 Sudoeste 0 -- -- 94
2018-11-22 07:00:00 5.6 0 Calma 4 Sur 0 -- -- 93
2018-11-22 06:00:00 5.9 0 Calma 4 Sudoeste 0 -- -- 92
2018-11-22 05:00:00 6.3 0 Calma 6 Sudoeste 0 -- -- 91
2018-11-22 04:00:00 5.6 0 Calma 5 Sur 0 -- -- 93
2018-11-22 03:00:00 5.8 0 Calma 6 Sudoeste 0 -- -- 90
2018-11-22 02:00:00 6.7 3 Sudoeste 7 Oeste 0 -- -- 89
2018-11-22 01:00:00 7.6 0 Calma 12 Oeste 0 -- -- 86
2018-11-22 00:00:00 7.7 3 Oeste 10 Sudoeste 0 -- -- 85
2018-11-21 23:00:00 8.2 4 Sudoeste 14 Oeste 0 -- -- 85
2018-11-21 22:00:00 7.2 4 Oeste 12 Oeste 0 -- -- 91
2018-11-21 21:00:00 8.2 0 Calma 9 Sudoeste 0 -- -- 86
2018-11-21 20:00:00 8.5 3 Sur 6 Sur 0 -- -- 88
2018-11-21 19:00:00 9.6 3 Sudoeste 6 Sudoeste 0 -- -- 84
2018-11-21 18:00:00 10.2 0 Calma 4 Oeste 0 -- -- 80
2018-11-21 17:00:00 12.1 2 Oeste 10 Sudoeste 0 -- -- 69
2018-11-21 16:00:00 12.9 3 Sudoeste 24 Sudoeste 0 -- -- 66
2018-11-21 15:00:00 13.3 7 Sudoeste 19 Oeste 0 -- -- 64
2018-11-21 14:00:00 13.5 9 Oeste 22 Oeste 0 -- -- 63
2018-11-21 13:00:00 12.3 6 Oeste 18 Oeste 0 -- -- 67
2018-11-21 12:00:00 11.3 4 Oeste 24 Sudoeste 0 -- -- 70
2018-11-21 11:00:00 10.2 7 Sudoeste 19 Sudoeste 0 -- -- 73
2018-11-21 10:00:00 8.4 4 Sudoeste 16 Sudoeste 0 -- -- 82
2018-11-21 09:00:00 4.8 3 Sudoeste 9 Sudoeste 0 -- -- 91
2018-11-21 08:00:00 4.8 0 Calma 8 Oeste 0 -- -- 86
2018-11-21 07:00:00 6.4 3 Oeste 19 Oeste 0 -- -- 80
2018-11-21 06:00:00 6.5 7 Oeste 18 Oeste 0 -- -- 81
2018-11-21 05:00:00 6.2 4 Oeste 13 Oeste 0 -- -- 83
2018-11-21 04:00:00 7.1 7 Oeste 19 Oeste 0 -- -- 79
2018-11-21 03:00:00 6.9 5 Sudoeste 21 Oeste 0 -- -- 83
2018-11-21 02:00:00 8.3 6 Oeste 18 Oeste 0 -- -- 80
2018-11-21 01:00:00 8.7 4 Oeste 19 Sudoeste 0 -- -- 77
2018-11-21 00:00:00 8.4 6 Oeste 22 Oeste 0 -- -- 79
2018-11-20 23:00:00 7.7 5 Oeste 27 Oeste 0 -- -- 81
2018-11-20 22:00:00 7.8 12 Oeste 39 Oeste 0 -- -- 82
2018-11-20 21:00:00 7.6 13 Oeste 33 Sudoeste 0 -- -- 82
2018-11-20 20:00:00 7.9 12 Oeste 35 Oeste 0 -- -- 86
2018-11-20 19:00:00 8.2 14 Oeste 28 Oeste 0 -- -- 91
2018-11-20 18:00:00 8.6 10 Oeste 26 Oeste 1.8 -- -- 92
2018-11-20 17:00:00 9.5 7 Sudoeste 25 Sudoeste 1.8 -- -- 92
2018-11-20 16:00:00 10.1 9 Sudoeste 30 Sudoeste 0.2 -- -- 86
2018-11-20 15:00:00 11.3 8 Sur 26 Sudoeste 0 -- -- 77
2018-11-20 14:00:00 11.9 8 Sur 19 Sur 0 -- -- 75
2018-11-20 13:00:00 10.1 7 Sudoeste 26 Sudoeste 0 -- -- 84
2018-11-20 12:00:00 11.3 12 Sudoeste 31 Sudoeste 0 -- -- 71
2018-11-20 11:00:00 11.7 7 Sudoeste 27 Sudoeste 0 -- -- 74
2018-11-20 10:00:00 10.2 9 Sudoeste 21 Sudoeste 0 -- -- 79
2018-11-20 09:00:00 7.8 5 Sudoeste 14 Sudoeste 0 -- -- 91
2018-11-20 08:00:00 7.5 4 Oeste 14 Sudoeste 0 -- -- 89
2018-11-20 07:00:00 8.4 6 Oeste 19 Oeste 0 -- -- 87
2018-11-20 06:00:00 9 8 Oeste 18 Oeste 0 -- -- 87
2018-11-20 05:00:00 8.7 6 Oeste 20 Sudoeste 0 -- -- 89
2018-11-20 04:00:00 9 8 Oeste 19 Oeste 0 -- -- 89
2018-11-20 03:00:00 8.8 5 Oeste 17 Oeste 0 -- -- 89
2018-11-20 02:00:00 9 8 Oeste 17 Oeste 0 -- -- 89
2018-11-20 01:00:00 9 5 Oeste 13 Oeste 0 -- -- 90
2018-11-20 00:00:00 8.7 3 Sudoeste 10 Sudoeste 0 -- -- 91
2018-11-19 23:00:00 8.7 3 Sudoeste 12 Oeste 0 -- -- 89
2018-11-19 22:00:00 8.8 4 Noroeste 14 Oeste 0 -- -- 91
2018-11-19 21:00:00 8.8 0 Calma 4 Sudoeste 0 -- -- 95
2018-11-19 20:00:00 8.9 0 Calma 3 Noroeste 0 -- -- 94
2018-11-19 19:00:00 9.1 0 Calma 8 Norte 0.2 -- -- 93
2018-11-19 18:00:00 9.1 3 Norte 14 Norte 0 -- -- 93
2018-11-19 17:00:00 9.1 5 Norte 17 Nordeste 0 -- -- 95
2018-11-19 16:00:00 9.3 4 Norte 21 Norte 0 -- -- 93
2018-11-19 15:00:00 9.3 7 Norte 23 Norte 0 -- -- 93
2018-11-19 14:00:00 9.2 9 Norte 22 Noroeste 0.2 -- -- 94
2018-11-19 13:00:00 8.9 8 Norte 21 Nordeste 0 -- -- 95
2018-11-19 12:00:00 9 5 Norte 22 Norte 0 -- -- 94
2018-11-19 11:00:00 8.7 7 Norte 21 Noroeste 0 -- -- 95
2018-11-19 10:00:00 8.7 6 Norte 20 Norte 0.2 -- -- 96
2018-11-19 09:00:00 8.6 6 Nordeste 19 Nordeste 0.2 -- -- 95
2018-11-19 08:00:00 8.7 5 Nordeste 15 Nordeste 0.2 -- -- 96
2018-11-19 07:00:00 8.9 3 Norte 10 Nordeste 1 -- -- 96
2018-11-19 06:00:00 9 2 Nordeste 9 Este 0.6 -- -- 96
2018-11-19 05:00:00 9.2 4 Nordeste 13 Nordeste 0.2 -- -- 93
2018-11-19 04:00:00 9.2 0 Calma 17 Nordeste 0 -- -- 93
2018-11-19 03:00:00 9.3 5 Este 16 Este 0 -- -- 91
2018-11-19 02:00:00 9.2 6 Nordeste 19 Este 0 -- -- 91
2018-11-19 01:00:00 9.3 5 Nordeste 18 Nordeste 0 -- -- 92
2018-11-19 00:00:00 9.2 4 Este 16 Este 0 -- -- 90
2018-11-18 23:00:00 9.2 5 Este 21 Este 0 -- -- 90
2018-11-18 22:00:00 9.3 8 Este 25 Nordeste 0 -- -- 91
2018-11-18 21:00:00 9.1 4 Este 20 Nordeste 0 -- -- 91
2018-11-18 20:00:00 9.2 6 Este 21 Este 0 -- -- 88
2018-11-18 19:00:00 9.4 7 Este 24 Sudeste 0 -- -- 90
2018-11-18 18:00:00 9.7 6 Este 23 Este 0 -- -- 91
2018-11-18 17:00:00 10.1 4 Este 18 Este 0 -- -- 91
2018-11-18 16:00:00 11 3 Este 20 Sudeste 0.2 -- -- 92
2018-11-18 15:00:00 11.2 5 Este 20 Este 0 -- -- 88
2018-11-18 14:00:00 11.3 4 Este 17 Sudeste 0 -- -- 88
2018-11-18 13:00:00 11.4 6 Este 20 Este 0 -- -- 87
2018-11-18 12:00:00 11.2 6 Este 19 Este 0 -- -- 87
2018-11-18 11:00:00 10.8 6 Este 16 Este 0 -- -- 90
2018-11-18 10:00:00 9.9 3 Este 14 Este 0 -- -- 96
2018-11-18 09:00:00 9.3 4 Este 15 Sudeste 0 -- -- 97
2018-11-18 08:00:00 9 2 Este 9 Este 0 -- -- 98
2018-11-18 07:00:00 8.8 3 Este 9 Nordeste 0 -- -- 97
2018-11-18 06:00:00 8.5 0 Calma 5 Sur 0 -- -- 97
2018-11-18 05:00:00 8 0 Calma 2 Sur 0 -- -- 95
2018-11-18 04:00:00 8.9 0 Calma 3 Sur 0 -- -- 95
2018-11-18 03:00:00 9.4 0 Calma 5 Sudeste 0 -- -- 94
2018-11-18 02:00:00 9.6 0 Calma 9 Este 0 -- -- 95
2018-11-18 01:00:00 9.9 3 Este 9 Sudeste 0 -- -- 95
2018-11-18 00:00:00 10.2 2 Este 6 Este 0 -- -- 96
2018-11-17 23:00:00 10.1 0 Calma 8 Este 0 -- -- 95
2018-11-17 22:00:00 10.1 2 Sudeste 9 Este 0 -- -- 94
2018-11-17 21:00:00 10.3 2 Este 9 Este 0 -- -- 94
2018-11-17 20:00:00 10.5 3 Este 11 Este 0 -- -- 93
2018-11-17 19:00:00 11 3 Este 12 Nordeste 0 -- -- 93
2018-11-17 18:00:00 11.2 4 Este 16 Este 0 -- -- 92
2018-11-17 17:00:00 12.1 5 Este 17 Este 0 -- -- 88
2018-11-17 16:00:00 12.9 5 Este 14 Sudeste 0 -- -- 86
2018-11-17 15:00:00 13.2 5 Este 14 Sudeste 0 -- -- 86
2018-11-17 14:00:00 12.9 3 Este 13 Este 0 -- -- 85
2018-11-17 13:00:00 12.2 5 Este 15 Este 0 -- -- 90
2018-11-17 12:00:00 12.3 5 Este 19 Sudeste 0 -- -- 89
2018-11-17 11:00:00 11.6 5 Este 14 Nordeste 0.2 -- -- 93
2018-11-17 10:00:00 11 3 Nordeste 11 Este 0 -- -- 96
2018-11-17 09:00:00 10.7 4 Este 10 Nordeste 0 -- -- 96
2018-11-17 08:00:00 10.5 2 Este 5 Nordeste 0 -- -- 97
2018-11-17 07:00:00 10.5 2 Este 8 Nordeste 0 -- -- 96
2018-11-17 06:00:00 10.7 3 Este 10 Nordeste 0 -- -- 96
2018-11-17 05:00:00 10.8 2 Este 6 Sudeste 0 -- -- 96
2018-11-17 04:00:00 10.8 0 Calma 17 Este 1.8 -- -- 96
2018-11-17 03:00:00 11.2 6 Este 18 Nordeste 1.4 -- -- 95
2018-11-17 02:00:00 11.2 0 Calma 4 Este 0 -- -- 93
2018-11-17 01:00:00 11.5 2 Este 8 Nordeste 0 -- -- 92
2018-11-17 00:00:00 11.6 0 Calma 14 Este 0 -- -- 92
2018-11-16 23:00:00 11.6 5 Este 15 Este 0 -- -- 92
2018-11-16 22:00:00 11.7 4 Este 13 Nordeste 0 -- -- 93
2018-11-16 21:00:00 11.6 4 Este 17 Este 0 -- -- 92
2018-11-16 20:00:00 11.7 4 Este 16 Nordeste 0 -- -- 91
2018-11-16 19:00:00 11.9 4 Nordeste 16 Este 0 -- -- 92
2018-11-16 18:00:00 12.2 6 Este 19 Este 0 -- -- 91
2018-11-16 17:00:00 12.5 5 Este 22 Este 0 -- -- 91
2018-11-16 16:00:00 13.4 9 Este 22 Este 0 -- -- 87
2018-11-16 15:00:00 13.2 8 Este 22 Nordeste 0 -- -- 88
2018-11-16 14:00:00 13.2 7 Este 20 Este 0 -- -- 88
2018-11-16 13:00:00 12.6 7 Este 21 Nordeste 0 -- -- 92
2018-11-16 12:00:00 12.8 6 Este 21 Este 0 -- -- 90
2018-11-16 11:00:00 12.7 3 Este 18 Este 0 -- -- 91
2018-11-16 10:00:00 12.4 6 Este 14 Este 0 -- -- 95
2018-11-16 09:00:00 12.1 3 Este 9 Nordeste 0 -- -- 96
2018-11-16 08:00:00 11.5 3 Este 9 Este 0 -- -- 96
2018-11-16 07:00:00 11.5 2 Este 10 Nordeste 0 -- -- 96
2018-11-16 06:00:00 11.3 0 Calma 5 Nordeste 0 -- -- 94
2018-11-16 05:00:00 12 3 Nordeste 4 Este 0 -- -- 94
2018-11-16 04:00:00 12.1 2 Nordeste 5 Este 0 -- -- 95
2018-11-16 03:00:00 12.1 0 Calma 14 Nordeste 0 -- -- 95
2018-11-16 02:00:00 12.3 5 Nordeste 18 Nordeste 0 -- -- 96
2018-11-16 01:00:00 12.2 3 Este 13 Sudeste 0 -- -- 96
2018-11-16 00:00:00 12 4 Este 21 Este 0 -- -- 96
2018-11-15 23:00:00 12.2 4 Este 14 Este 0 -- -- 95
2018-11-15 22:00:00 12.2 3 Este 12 Este 0 -- -- 95
2018-11-15 21:00:00 12.3 3 Este 8 Este 0 -- -- 95
2018-11-15 20:00:00 12.2 4 Este 17 Este 0 -- -- 96
2018-11-15 19:00:00 12.2 6 Este 18 Este 0 -- -- 94
2018-11-15 18:00:00 12.5 5 Este 13 Sudeste 0 -- -- 94
2018-11-15 17:00:00 13 6 Este 13 Nordeste 0 -- -- 91
2018-11-15 16:00:00 13.3 4 Este 15 Este 0 -- -- 89
2018-11-15 15:00:00 13.8 5 Este 15 Este 0 -- -- 89
2018-11-15 14:00:00 13.4 5 Este 14 Nordeste 0.2 -- -- 95
2018-11-15 13:00:00 12.3 3 Nordeste 12 Nordeste 0.4 -- -- 97
2018-11-15 12:00:00 11.7 3 Este 9 Sudeste 1.6 -- -- 97
2018-11-15 11:00:00 11.1 0 Calma 8 Este 1.6 -- -- 97
2018-11-15 10:00:00 10.8 5 Este 17 Nordeste 1.2 -- -- 95
2018-11-15 09:00:00 11.6 0 Calma 8 Sudeste 2.8 -- -- 96
2018-11-15 08:00:00 11.8 0 Calma 11 Este 0.8 -- -- 96
2018-11-15 07:00:00 11.8 4 Este 12 Este 0 -- -- 95
2018-11-15 06:00:00 11.8 4 Este 15 Nordeste 0 -- -- 95
2018-11-15 05:00:00 11.8 6 Este 21 Este 0 -- -- 94
2018-11-15 04:00:00 11.3 5 Este 14 Este 0 -- -- 94
2018-11-15 03:00:00 11.3 5 Este 18 Este 0 -- -- 92
2018-11-15 02:00:00 12.1 5 Este 17 Este 0 -- -- 93
2018-11-15 01:00:00 12.1 2 Este 12 Nordeste 0 -- -- 93
2018-11-15 00:00:00 12.1 3 Este 15 Este 0 -- -- 93
2018-11-14 23:00:00 12 3 Este 10 Este 0 -- -- 92
2018-11-14 22:00:00 11.9 4 Este 16 Nordeste 0 -- -- 90
2018-11-14 21:00:00 11.9 6 Este 12 Nordeste 0 -- -- 89
2018-11-14 20:00:00 12 4 Este 21 Este 0 -- -- 88
2018-11-14 19:00:00 12.1 3 Este 15 Nordeste 0 -- -- 89
2018-11-14 18:00:00 12.7 7 Este 21 Nordeste 0 -- -- 87
2018-11-14 17:00:00 13.2 11 Este 26 Nordeste 0 -- -- 86
2018-11-14 16:00:00 14.4 10 Este 22 Nordeste 0 -- -- 81
2018-11-14 15:00:00 14.9 8 Este 23 Este 0 -- -- 80
2018-11-14 14:00:00 13.8 8 Este 21 Nordeste 0 -- -- 86
2018-11-14 13:00:00 13.5 7 Este 20 Este 0 -- -- 86
2018-11-14 12:00:00 14 6 Este 19 Nordeste 0 -- -- 83
2018-11-14 11:00:00 13.3 7 Este 18 Este 0 -- -- 85
2018-11-14 10:00:00 12.7 5 Este 16 Este 0 -- -- 92
2018-11-14 09:00:00 11.8 2 Nordeste 13 Nordeste 0 -- -- 95
2018-11-14 08:00:00 11.6 4 Este 14 Este 0 -- -- 94
2018-11-14 07:00:00 11.2 3 Este 10 Este 0 -- -- 95
2018-11-14 06:00:00 11.1 3 Este 16 Este 0 -- -- 94
2018-11-14 05:00:00 11.9 4 Este 12 Este 0 -- -- 94
2018-11-14 04:00:00 11.9 3 Este 14 Nordeste 0 -- -- 92
2018-11-14 03:00:00 12.3 2 Este 13 Este 0 -- -- 94
2018-11-14 02:00:00 12.4 6 Este 15 Nordeste 0 -- -- 93
2018-11-14 01:00:00 12.7 6 Este 18 Este 0 -- -- 92
2018-11-14 00:00:00 12.5 4 Este 20 Este 0 -- -- 92
2018-11-13 23:00:00 12.1 5 Este 16 Este 0 -- -- 92
2018-11-13 22:00:00 12 5 Este 25 Este 0 -- -- 91
2018-11-13 21:00:00 12.1 9 Este 20 Nordeste 0 -- -- 91
2018-11-13 20:00:00 12.2 8 Este 21 Este 0 -- -- 90
2018-11-13 19:00:00 12.7 8 Este 28 Nordeste 0 -- -- 89
2018-11-13 18:00:00 13.2 9 Este 21 Nordeste 0 -- -- 88
2018-11-13 17:00:00 14 11 Este 21 Nordeste 0 -- -- 86
2018-11-13 16:00:00 14.3 10 Este 24 Nordeste 0 -- -- 85
2018-11-13 15:00:00 14.7 9 Este 26 Este 0 -- -- 83
2018-11-13 14:00:00 14.8 9 Este 24 Este 0 -- -- 80
2018-11-13 13:00:00 13.9 12 Este 27 Este 0 -- -- 84
2018-11-13 12:00:00 13.8 9 Este 24 Nordeste 0 -- -- 86
2018-11-13 11:00:00 13.1 9 Este 21 Nordeste 0 -- -- 91
2018-11-13 10:00:00 12.3 3 Nordeste 10 Este 0 -- -- 97
2018-11-13 09:00:00 11.2 3 Este 11 Este 0 -- -- 98
2018-11-13 08:00:00 9.8 0 Calma 3 Nordeste 0 -- -- 97
2018-11-13 07:00:00 9.6 0 Calma 4 Norte 0 -- -- 96
2018-11-13 06:00:00 9.8 0 Calma 3 Este 0 -- -- 96
2018-11-13 05:00:00 10.4 0 Calma 3 Norte 0 -- -- 97
2018-11-13 04:00:00 9.8 0 Calma 2 Noroeste 0 -- -- 97
2018-11-13 03:00:00 9.4 0 Calma 2 Norte 0 -- -- 96
2018-11-13 02:00:00 9.5 0 Calma 3 Norte 0 -- -- 96
2018-11-13 01:00:00 8.6 0 Calma 4 Sudeste 0 -- -- 94
2018-11-13 00:00:00 9.6 0 Calma 5 Este 0 -- -- 95
2018-11-12 23:00:00 10.4 0 Calma 5 Sudeste 0 -- -- 95
2018-11-12 22:00:00 10.9 2 Este 8 Este 0 -- -- 96
2018-11-12 21:00:00 9.9 0 Calma 4 Sudeste 0 -- -- 93
2018-11-12 20:00:00 10 0 Calma 2 Sudoeste 0 -- -- 92
2018-11-12 19:00:00 11 0 Calma 8 Sudeste 0 -- -- 88
2018-11-12 18:00:00 12.7 3 Este 14 Este 0 -- -- 85
2018-11-12 17:00:00 13.9 5 Este 17 Sudeste 0 -- -- 82
2018-11-12 16:00:00 15.7 5 Este 20 Sudeste 0 -- -- 78
2018-11-12 15:00:00 17.2 7 Este 19 Este 0 -- -- 71
2018-11-12 14:00:00 16.9 6 Este 18 Sudeste 0 -- -- 67
2018-11-12 13:00:00 15 5 Este 18 Este 0 -- -- 78
2018-11-12 12:00:00 12.9 5 Este 12 Este 0 -- -- 87
2018-11-12 11:00:00 9.8 0 Calma 6 Nordeste 0 -- -- 97
2018-11-12 10:00:00 9.8 4 Nordeste 14 Este 0 -- -- 98
2018-11-12 09:00:00 5 0 Calma 9 Sudeste 0 -- -- 98
2018-11-12 08:00:00 2.7 0 Calma 4 Sudoeste 0 -- -- 95
2018-11-12 07:00:00 3.3 0 Calma 4 Oeste 0 -- -- 95
2018-11-12 06:00:00 3.7 3 Sudoeste 8 Sudoeste 0 -- -- 95
2018-11-12 05:00:00 4 0 Calma 7 Sur 0 -- -- 95
2018-11-12 04:00:00 4.5 0 Calma 4 Sudoeste 0 -- -- 95
2018-11-12 03:00:00 4.9 2 Sudoeste 4 Oeste 0 -- -- 95
2018-11-12 02:00:00 4.6 0 Calma 3 Sudoeste 0 -- -- 94
2018-11-12 01:00:00 4.9 0 Calma 4 Oeste 0 -- -- 93
2018-11-12 00:00:00 5.6 0 Calma 4 Oeste 0 -- -- 91
2018-11-11 23:00:00 6.3 2 Sur 6 Sudoeste 0 -- -- 91
2018-11-11 22:00:00 7.2 3 Sudoeste 6 Sudoeste 0 -- -- 88
2018-11-11 21:00:00 8.8 0 Calma 8 Sudeste 0 -- -- 83
2018-11-11 20:00:00 11.5 3 Sudeste 10 Sudeste 0 -- -- 77
2018-11-11 19:00:00 13.4 3 Sur 11 Sudeste 0 -- -- 68
2018-11-11 18:00:00 15.4 5 Sudeste 15 Sur 0 -- -- 60
2018-11-11 17:00:00 18.1 5 Sudeste 18 Sur 0 -- -- 51
2018-11-11 16:00:00 20.3 5 Sudeste 21 Sudeste 0 -- -- 49
2018-11-11 15:00:00 20.8 8 Sur 22 Sur 0 -- -- 48
2018-11-11 14:00:00 20.5 8 Sudoeste 23 Sur 0 -- -- 48
2018-11-11 13:00:00 19.3 5 Oeste 17 Noroeste 0 -- -- 57
2018-11-11 12:00:00 17.6 9 Oeste 19 Oeste 0 -- -- 63
2018-11-11 11:00:00 15.6 7 Oeste 21 Oeste 0 -- -- 71
2018-11-11 10:00:00 13.8 6 Oeste 18 Oeste 0 -- -- 79
2018-11-11 09:00:00 10.7 3 Oeste 18 Sudoeste 0 -- -- 89
2018-11-11 08:00:00 9.5 7 Oeste 14 Oeste 0 -- -- 95
2018-11-11 07:00:00 7.7 2 Oeste 12 Oeste 0 -- -- 92
2018-11-11 06:00:00 8.3 4 Sudoeste 8 Sudoeste 0 -- -- 92
2018-11-11 05:00:00 8.3 0 Calma 10 Sudoeste 0 -- -- 89
2018-11-11 04:00:00 9.4 4 Sudoeste 15 Oeste 0 -- -- 87
2018-11-11 03:00:00 10.2 8 Sudoeste 23 Oeste 0 -- -- 86
2018-11-11 02:00:00 10.1 12 Oeste 27 Oeste 0 -- -- 85
2018-11-11 01:00:00 9 8 Oeste 17 Oeste 0 -- -- 87
2018-11-11 00:00:00 7.7 7 Oeste 14 Oeste 0 -- -- 92
2018-11-10 23:00:00 7.7 2 Oeste 9 Oeste 0 -- -- 91
2018-11-10 22:00:00 8.5 0 Calma 18 Oeste 0 -- -- 87
2018-11-10 21:00:00 9.3 7 Oeste 16 Oeste 0 -- -- 85
2018-11-10 20:00:00 9.9 6 Oeste 19 Oeste 0 -- -- 82
2018-11-10 19:00:00 10.5 6 Oeste 18 Oeste 0 -- -- 79
2018-11-10 18:00:00 12 11 Oeste 24 Oeste 0 -- -- 73
2018-11-10 17:00:00 13.7 9 Oeste 30 Noroeste 0 -- -- 67
2018-11-10 16:00:00 14.6 10 Oeste 27 Noroeste 0 -- -- 66
2018-11-10 15:00:00 15.4 11 Oeste 28 Noroeste 0 -- -- 64
2018-11-10 14:00:00 13.7 12 Oeste 29 Oeste 0 -- -- 70
2018-11-10 13:00:00 12.7 9 Noroeste 34 Oeste 0 -- -- 72
2018-11-10 12:00:00 13.4 12 Noroeste 39 Noroeste 0 -- -- 69
2018-11-10 11:00:00 11.5 6 Noroeste 24 Oeste 0 -- -- 76
2018-11-10 10:00:00 9.8 7 Oeste 17 Oeste 0 -- -- 81
2018-11-10 09:00:00 9.3 3 Sur 12 Sudoeste 0 -- -- 82
2018-11-10 08:00:00 9.2 3 Sudoeste 16 Oeste 0 -- -- 81
2018-11-10 07:00:00 9.2 7 Oeste 24 Oeste 0 -- -- 80
2018-11-10 06:00:00 9 12 Oeste 25 Oeste 0 -- -- 82
2018-11-10 05:00:00 9 9 Oeste 28 Sudoeste 0 -- -- 81
2018-11-10 04:00:00 8.7 13 Oeste 26 Oeste 0 -- -- 82
2018-11-10 03:00:00 8.4 14 Oeste 33 Noroeste 0 -- -- 81
2018-11-10 02:00:00 8.2 11 Noroeste 28 Oeste 0 -- -- 80
2018-11-10 01:00:00 8.3 18 Oeste 38 Noroeste 0 -- -- 78
2018-11-10 00:00:00 8.4 13 Oeste 30 Oeste 0 -- -- 75
2018-11-09 23:00:00 8.6 12 Noroeste 26 Noroeste 0 -- -- 73
2018-11-09 22:00:00 8.3 8 Noroeste 31 Oeste 0 -- -- 75
2018-11-09 21:00:00 7.2 7 Oeste 18 Oeste 0 -- -- 79
2018-11-09 20:00:00 7.2 11 Oeste 21 Oeste 0 -- -- 75
2018-11-09 19:00:00 8.4 9 Noroeste 26 Norte 0 -- -- 66
2018-11-09 18:00:00 9 13 Noroeste 45 Noroeste 0 -- -- 66
2018-11-09 17:00:00 9.8 14 Noroeste 52 Noroeste 0 -- -- 63
2018-11-09 16:00:00 10.8 20 Noroeste 48 Oeste 0 -- -- 63
2018-11-09 15:00:00 11.4 16 Noroeste 43 Noroeste 0 -- -- 63
2018-11-09 14:00:00 10.7 16 Noroeste 42 Noroeste 0 -- -- 64
2018-11-09 13:00:00 10.1 15 Noroeste 50 Noroeste 0 -- -- 64
2018-11-09 12:00:00 9 17 Noroeste 44 Oeste 0 -- -- 72
2018-11-09 11:00:00 7.8 15 Noroeste 36 Noroeste 0 -- -- 77
2018-11-09 10:00:00 6.9 9 Noroeste 31 Oeste 0 -- -- 79
2018-11-09 09:00:00 6.7 15 Noroeste 51 Noroeste 0 -- -- 80
2018-11-09 08:00:00 5.8 22 Oeste 41 Oeste 0.2 -- -- 84
2018-11-09 07:00:00 5.9 15 Oeste 31 Noroeste 0 -- -- 86
2018-11-09 06:00:00 5.9 15 Oeste 37 Noroeste 0 -- -- 84
2018-11-09 05:00:00 6.3 17 Oeste 39 Oeste 0 -- -- 84
2018-11-09 04:00:00 6.9 18 Oeste 32 Oeste 0 -- -- 83
2018-11-09 03:00:00 7.2 7 Oeste 41 Oeste 0.2 -- -- 86
2018-11-09 02:00:00 8.2 19 Oeste 44 Oeste 0.2 -- -- 89
2018-11-09 01:00:00 9.3 9 Oeste 26 Oeste 0 -- -- 92
2018-11-09 00:00:00 9.5 6 Oeste 23 Noroeste 1.8 -- -- 93